createdAt,value
2023-11-18T00:00:37.787Z,45.69
2023-11-18T00:03:09.777Z,46.07
2023-11-18T00:05:39.464Z,45.42
2023-11-18T00:08:08.212Z,45.63
2023-11-18T00:10:38.236Z,45.97
2023-11-18T00:13:07.955Z,45.85
2023-11-18T00:15:37.722Z,45.53
2023-11-18T00:18:09.168Z,45.64
2023-11-18T00:20:39.096Z,45.82
2023-11-18T00:23:08.789Z,45.58
2023-11-18T00:25:41.263Z,45.53
2023-11-18T00:28:11.024Z,45.80
2023-11-18T00:30:40.908Z,45.59
2023-11-18T00:33:13.279Z,45.92
2023-11-18T00:35:42.996Z,45.96
2023-11-18T00:38:13.199Z,45.71
2023-11-18T00:40:43.126Z,45.91
2023-11-18T00:43:13.082Z,45.96
2023-11-18T00:45:45.014Z,45.93
2023-11-18T00:48:17.518Z,45.45
2023-11-18T00:50:47.531Z,45.75
2023-11-18T00:53:17.237Z,45.76
2023-11-18T00:55:46.993Z,46.13
2023-11-18T00:58:16.954Z,45.53
2023-11-18T01:00:46.655Z,45.84
2023-11-18T01:03:18.587Z,45.50
2023-11-18T01:05:48.553Z,45.72
2023-11-18T01:08:18.848Z,45.57
2023-11-18T01:10:48.728Z,45.90
2023-11-18T01:13:18.381Z,45.82
2023-11-18T01:15:49.100Z,45.50
2023-11-18T01:18:20.568Z,46.07
2023-11-18T01:20:50.162Z,45.43
2023-11-18T01:23:19.795Z,45.71
2023-11-18T01:25:52.629Z,45.83
2023-11-18T01:28:22.605Z,45.52
2023-11-18T01:30:52.664Z,45.55
2023-11-18T01:33:25.593Z,45.66
2023-11-18T01:35:56.454Z,45.71
2023-11-18T01:38:27.741Z,45.80
2023-11-18T01:40:57.293Z,45.82
2023-11-18T01:43:27.114Z,45.41
2023-11-18T01:45:57.942Z,45.55
2023-11-18T01:48:32.326Z,45.83
2023-11-18T01:51:04.850Z,45.82
2023-11-18T01:53:36.708Z,45.73
2023-11-18T01:56:07.788Z,45.32
2023-11-18T01:58:38.732Z,45.50
2023-11-18T02:01:10.003Z,45.52
2023-11-18T02:03:44.255Z,45.89
2023-11-18T02:06:17.323Z,46.00
2023-11-18T02:08:47.288Z,45.89
2023-11-18T02:11:33.888Z,45.75
2023-11-18T02:14:12.326Z,45.76
2023-11-18T02:16:55.776Z,45.75
2023-11-18T02:19:29.749Z,45.59
2023-11-18T02:22:01.011Z,45.90
2023-11-18T02:24:32.384Z,45.77
2023-11-18T02:27:04.463Z,45.63
2023-11-18T02:29:38.648Z,45.61
2023-11-18T02:32:18.315Z,45.76
2023-11-18T02:34:57.096Z,45.78
2023-11-18T02:37:28.967Z,45.90
2023-11-18T02:40:09.844Z,45.75
2023-11-18T02:42:44.004Z,45.89
2023-11-18T02:45:18.704Z,45.58
2023-11-18T02:47:49.186Z,45.85
2023-11-18T02:50:20.978Z,45.69
2023-11-18T02:52:50.226Z,45.63
2023-11-18T02:55:20.156Z,45.65
2023-11-18T02:58:04.505Z,45.83
2023-11-18T03:00:35.038Z,45.89
2023-11-18T03:03:04.667Z,45.91
2023-11-18T03:05:34.603Z,45.71
2023-11-18T03:08:07.665Z,45.81
2023-11-18T03:10:38.850Z,45.35
2023-11-18T03:13:10.402Z,45.63
2023-11-18T03:15:40.095Z,45.44
2023-11-18T03:18:10.147Z,45.53
2023-11-18T03:20:39.945Z,45.57
2023-11-18T03:23:10.709Z,45.58
2023-11-18T03:25:40.801Z,45.48
2023-11-18T03:28:12.558Z,45.62
2023-11-18T03:30:43.594Z,45.73
2023-11-18T03:33:13.317Z,45.42
2023-11-18T03:35:43.331Z,45.48
2023-11-18T03:38:14.449Z,45.34
2023-11-18T03:40:46.655Z,45.31
2023-11-18T03:43:18.306Z,45.36
2023-11-18T03:45:48.277Z,45.37
2023-11-18T03:48:20.045Z,45.30
2023-11-18T03:50:50.089Z,45.63
2023-11-18T03:53:19.661Z,45.56
2023-11-18T03:55:49.607Z,45.65
2023-11-18T03:58:20.720Z,45.15
2023-11-18T04:00:50.837Z,45.27
2023-11-18T04:03:20.661Z,45.53
2023-11-18T04:05:50.694Z,45.25
2023-11-18T04:11:04.837Z,45.52
2023-11-18T04:13:36.420Z,45.19
2023-11-18T04:16:07.523Z,45.31
2023-11-18T04:18:37.215Z,45.15
2023-11-18T04:21:08.108Z,45.22
2023-11-18T04:23:37.870Z,45.39
2023-11-18T04:26:08.800Z,45.29
2023-11-18T04:28:40.428Z,45.37
2023-11-18T04:31:10.642Z,45.03
2023-11-18T04:33:41.980Z,45.16
2023-11-18T04:36:15.027Z,45.54
2023-11-18T04:38:45.367Z,45.26
2023-11-18T04:41:15.050Z,45.18
2023-11-18T04:43:46.402Z,45.27
2023-11-18T04:46:16.399Z,45.44
2023-11-18T04:48:46.746Z,45.76
2023-11-18T04:51:16.388Z,45.69
2023-11-18T04:53:46.611Z,45.46
2023-11-18T04:56:18.291Z,45.69
2023-11-18T04:58:50.243Z,45.71
2023-11-18T05:01:19.989Z,45.70
2023-11-18T05:03:49.749Z,45.58
2023-11-18T05:06:21.570Z,45.34
2023-11-18T05:08:51.501Z,45.66
2023-11-18T05:11:22.413Z,45.59
2023-11-18T05:13:55.322Z,45.38
2023-11-18T05:16:25.406Z,45.58
2023-11-18T05:18:55.109Z,45.56
2023-11-18T05:21:25.719Z,45.23
2023-11-18T05:23:55.259Z,45.09
2023-11-18T05:26:25.419Z,45.01
2023-11-18T05:28:57.275Z,45.03
2023-11-18T05:31:31.104Z,45.32
2023-11-18T05:34:01.062Z,45.57
2023-11-18T05:36:38.739Z,45.44
2023-11-18T05:39:11.652Z,45.23
2023-11-18T05:41:47.401Z,45.19
2023-11-18T05:44:21.138Z,45.07
2023-11-18T05:46:53.305Z,45.26
2023-11-18T05:49:27.752Z,44.90
2023-11-18T05:51:57.804Z,45.11
2023-11-18T05:54:28.066Z,45.42
2023-11-18T05:57:00.954Z,45.06
2023-11-18T05:59:40.750Z,45.10
2023-11-18T06:02:14.699Z,45.48
2023-11-18T06:04:44.531Z,45.41
2023-11-18T06:07:15.151Z,44.91
2023-11-18T06:09:47.093Z,44.68
2023-11-18T06:12:19.158Z,44.88
2023-11-18T06:14:53.055Z,45.05
2023-11-18T06:17:23.414Z,44.81
2023-11-18T06:19:53.439Z,44.45
2023-11-18T06:22:25.789Z,44.61
2023-11-18T06:24:56.070Z,45.00
2023-11-18T06:27:25.977Z,44.32
2023-11-18T06:29:56.993Z,44.36
2023-11-18T06:32:27.540Z,44.53
2023-11-18T06:34:57.258Z,44.94
2023-11-18T06:37:28.755Z,44.81
2023-11-18T06:39:58.429Z,44.00
2023-11-18T06:42:28.011Z,44.52
2023-11-18T06:44:59.513Z,43.97
2023-11-18T06:47:29.289Z,44.31
2023-11-18T06:49:59.067Z,44.22
2023-11-18T06:52:29.597Z,44.29
2023-11-18T06:54:59.248Z,44.58
2023-11-18T06:57:29.019Z,44.46
2023-11-18T07:00:09.490Z,44.45
2023-11-18T07:02:38.985Z,44.19
2023-11-18T07:05:09.273Z,43.88
2023-11-18T07:07:39.256Z,44.17
2023-11-18T07:10:14.403Z,43.89
2023-11-18T07:12:44.229Z,43.95
2023-11-18T07:15:15.406Z,43.92
2023-11-18T07:17:45.648Z,43.49
2023-11-18T07:20:15.671Z,43.41
2023-11-18T07:22:45.399Z,43.85
2023-11-18T07:25:14.865Z,43.62
2023-11-18T07:27:44.839Z,44.09
2023-11-18T07:30:16.987Z,43.35
2023-11-18T07:32:46.574Z,43.54
2023-11-18T07:35:16.416Z,43.81
2023-11-18T07:37:46.527Z,43.42
2023-11-18T07:40:23.440Z,43.25
2023-11-18T07:42:54.052Z,43.06
2023-11-18T07:45:26.014Z,42.97
2023-11-18T07:47:55.846Z,43.43
2023-11-18T07:50:25.724Z,43.53
2023-11-18T07:52:55.871Z,42.81
2023-11-18T07:55:25.544Z,42.95
2023-11-18T07:57:55.493Z,43.41
2023-11-18T08:00:27.143Z,43.21
2023-11-18T08:02:57.144Z,43.23
2023-11-18T08:05:26.862Z,43.09
2023-11-18T08:07:56.615Z,43.11
2023-11-18T08:10:27.925Z,43.17
2023-11-18T08:12:57.650Z,43.12
2023-11-18T08:15:30.964Z,42.49
2023-11-18T08:18:01.033Z,42.53
2023-11-18T08:20:30.684Z,42.99
2023-11-18T08:23:00.799Z,42.73
2023-11-18T08:25:31.113Z,42.62
2023-11-18T08:28:02.165Z,42.83
2023-11-18T08:30:35.405Z,42.65
2023-11-18T08:33:10.463Z,42.63
2023-11-18T08:35:41.860Z,42.82
2023-11-18T08:38:13.993Z,42.77
2023-11-18T08:40:46.457Z,42.14
2023-11-18T08:43:18.153Z,42.79
2023-11-18T08:45:55.192Z,42.35
2023-11-18T08:48:25.492Z,42.44
2023-11-18T08:50:55.042Z,42.52
2023-11-18T08:53:27.842Z,42.45
2023-11-18T08:55:57.728Z,42.78
2023-11-18T08:58:30.994Z,42.58
2023-11-18T09:01:07.806Z,42.38
2023-11-18T09:03:38.340Z,42.55
2023-11-18T09:06:19.351Z,42.14
2023-11-18T09:08:54.721Z,42.32
2023-11-18T09:11:28.764Z,42.57
2023-11-18T09:14:02.607Z,42.25
2023-11-18T09:16:39.945Z,42.62
2023-11-18T09:19:09.726Z,42.92
2023-11-18T09:21:41.223Z,42.30
2023-11-18T09:24:14.271Z,42.35
2023-11-18T09:26:45.820Z,42.35
2023-11-18T09:29:19.978Z,42.24
2023-11-18T09:31:53.966Z,42.65
2023-11-18T09:34:34.843Z,42.90
2023-11-18T09:37:05.606Z,42.79
2023-11-18T09:39:40.366Z,42.14
2023-11-18T09:42:11.387Z,41.93
2023-11-18T09:47:31.696Z,42.45
2023-11-18T09:50:05.926Z,42.39
2023-11-18T09:52:39.240Z,42.35
2023-11-18T09:55:24.795Z,42.52
2023-11-18T09:58:05.618Z,42.51
2023-11-18T10:00:43.561Z,42.49
2023-11-18T10:03:17.610Z,42.04
2023-11-18T10:05:50.936Z,41.92
2023-11-18T10:08:25.391Z,42.59
2023-11-18T10:11:06.734Z,42.31
2023-11-18T10:13:42.169Z,42.34
2023-11-18T10:16:12.685Z,42.58
2023-11-18T10:18:50.656Z,41.94
2023-11-18T10:21:41.310Z,41.96
2023-11-18T10:24:15.897Z,42.30
2023-11-18T10:27:00.436Z,42.30
2023-11-18T10:29:32.104Z,42.29
2023-11-18T10:32:17.612Z,42.45
2023-11-18T10:34:51.080Z,41.78
2023-11-18T10:37:22.274Z,42.64
2023-11-18T10:39:53.417Z,42.43
2023-11-18T10:42:23.609Z,41.88
2023-11-18T10:45:00.692Z,42.45
2023-11-18T10:47:31.022Z,42.40
2023-11-18T10:50:02.797Z,42.04
2023-11-18T10:52:36.716Z,42.54
2023-11-18T10:55:13.733Z,42.57
2023-11-18T10:57:44.560Z,42.27
2023-11-18T11:00:16.679Z,41.87
2023-11-18T11:02:49.001Z,42.54
2023-11-18T11:05:34.540Z,42.52
2023-11-18T11:08:08.145Z,42.70
2023-11-18T11:10:43.250Z,42.54
2023-11-18T11:13:17.070Z,42.70
2023-11-18T11:15:57.738Z,42.00
2023-11-18T11:18:38.605Z,42.10
2023-11-18T11:21:18.146Z,42.07
2023-11-18T11:23:59.652Z,42.68
2023-11-18T11:26:58.900Z,42.84
2023-11-18T11:29:39.361Z,42.20
2023-11-18T11:32:29.582Z,42.43
2023-11-18T11:35:10.752Z,42.45
2023-11-18T11:37:43.938Z,42.46
2023-11-18T11:40:23.907Z,42.30
2023-11-18T11:42:56.821Z,42.62
2023-11-18T11:45:30.001Z,42.41
2023-11-18T11:48:18.656Z,42.43
2023-11-18T11:51:21.975Z,42.44
2023-11-18T11:54:06.270Z,43.05
2023-11-18T11:56:45.725Z,43.18
2023-11-18T11:59:18.236Z,42.71
2023-11-18T12:01:54.485Z,42.69
2023-11-18T12:04:30.254Z,42.78
2023-11-18T12:07:12.330Z,42.38
2023-11-18T12:09:53.049Z,42.79
2023-11-18T12:12:28.132Z,43.00
2023-11-18T12:15:13.589Z,43.02
2023-11-18T12:18:27.691Z,43.06
2023-11-18T12:20:57.763Z,43.10
2023-11-18T12:23:28.226Z,43.18
2023-11-18T12:26:00.155Z,43.24
2023-11-18T12:28:32.510Z,43.29
2023-11-18T12:31:18.507Z,42.83
2023-11-18T12:34:11.365Z,42.88
2023-11-18T12:37:40.217Z,43.27
2023-11-18T12:40:53.049Z,43.12
2023-11-18T12:43:54.139Z,43.13
2023-11-18T12:46:57.042Z,43.13
2023-11-18T12:49:29.915Z,42.41
2023-11-18T12:52:01.675Z,43.00
2023-11-18T12:54:33.381Z,42.44
2023-11-18T12:57:10.180Z,43.08
2023-11-18T12:59:43.195Z,42.72
2023-11-18T13:02:20.003Z,42.58
2023-11-18T13:04:51.378Z,42.43
2023-11-18T13:07:23.249Z,42.94
2023-11-18T13:09:55.898Z,43.04
2023-11-18T13:12:35.164Z,42.36
2023-11-18T13:15:11.449Z,42.78
2023-11-18T13:17:42.802Z,42.92
2023-11-18T13:20:16.828Z,42.60
2023-11-18T13:22:48.632Z,42.51
2023-11-18T13:25:19.223Z,42.34
2023-11-18T13:27:49.837Z,42.28
2023-11-18T13:30:22.265Z,42.82
2023-11-18T13:32:52.295Z,42.28
2023-11-18T13:35:25.158Z,42.09
2023-11-18T13:37:55.477Z,42.72
2023-11-18T13:40:25.473Z,42.14
2023-11-18T13:43:06.728Z,42.32
2023-11-18T13:45:38.846Z,42.79
2023-11-18T13:48:10.314Z,42.46
2023-11-18T13:50:40.252Z,42.83
2023-11-18T13:53:12.461Z,42.52
2023-11-18T13:55:43.606Z,42.42
2023-11-18T13:58:13.803Z,42.07
2023-11-18T14:00:52.778Z,42.40
2023-11-18T14:03:24.938Z,42.17
2023-11-18T14:05:56.980Z,42.21
2023-11-18T14:08:26.776Z,42.64
2023-11-18T14:11:02.861Z,42.22
2023-11-18T14:13:36.364Z,42.47
2023-11-18T14:16:11.326Z,41.99
2023-11-18T14:18:43.407Z,42.54
2023-11-18T14:21:15.763Z,42.61
2023-11-18T14:23:46.043Z,42.58
2023-11-18T14:26:16.038Z,42.76
2023-11-18T14:28:46.067Z,42.57
2023-11-18T14:31:30.392Z,42.01
2023-11-18T14:34:00.385Z,42.73
2023-11-18T14:36:30.164Z,42.58
2023-11-18T14:39:01.071Z,42.16
2023-11-18T14:41:32.467Z,42.55
2023-11-18T14:44:04.042Z,42.07
2023-11-18T14:46:35.737Z,42.30
2023-11-18T14:49:07.319Z,42.75
2023-11-18T14:51:39.909Z,42.04
2023-11-18T14:54:10.307Z,42.08
2023-11-18T14:56:39.997Z,42.16
2023-11-18T14:59:09.746Z,42.22
2023-11-18T15:01:45.677Z,42.66
2023-11-18T15:04:15.864Z,42.65
2023-11-18T15:06:45.530Z,42.52
2023-11-18T15:09:16.031Z,42.57
2023-11-18T15:11:47.015Z,42.69
2023-11-18T15:14:16.763Z,42.62
2023-11-18T15:16:48.828Z,42.67
2023-11-18T15:19:19.312Z,42.43
2023-11-18T15:21:50.584Z,42.60
2023-11-18T15:24:22.497Z,42.36
2023-11-18T15:26:52.936Z,42.09
2023-11-18T15:29:22.567Z,42.33
2023-11-18T15:31:56.587Z,42.53
2023-11-18T15:34:26.642Z,42.48
2023-11-18T15:36:56.252Z,42.88
2023-11-18T15:39:26.472Z,42.89
2023-11-18T15:41:56.303Z,42.83
2023-11-18T15:44:26.139Z,42.35
2023-11-18T15:47:27.667Z,42.28
2023-11-18T15:49:57.571Z,42.57
2023-11-18T15:52:27.676Z,42.96
2023-11-18T15:54:57.182Z,42.20
2023-11-18T15:57:26.998Z,42.30
2023-11-18T15:59:56.618Z,42.82
2023-11-18T16:02:30.142Z,42.87
2023-11-18T16:04:59.771Z,42.84
2023-11-18T16:07:29.270Z,42.98
2023-11-18T16:10:00.838Z,42.89
2023-11-18T16:12:30.353Z,42.45
2023-11-18T16:15:00.418Z,42.99
2023-11-18T16:17:47.530Z,42.30
2023-11-18T16:20:18.971Z,42.84
2023-11-18T16:22:50.870Z,42.54
2023-11-18T16:25:22.782Z,42.34
2023-11-18T16:27:53.977Z,42.55
2023-11-18T16:30:26.336Z,42.45
2023-11-18T16:32:59.274Z,42.60
2023-11-18T16:35:31.120Z,42.97
2023-11-18T16:38:02.394Z,43.13
2023-11-18T16:40:34.651Z,42.52
2023-11-18T16:43:04.340Z,42.89
2023-11-18T16:45:33.913Z,43.06
2023-11-18T16:48:05.985Z,42.62
2023-11-18T16:50:37.726Z,42.78
2023-11-18T16:53:07.994Z,42.98
2023-11-18T16:55:37.574Z,42.56
2023-11-18T16:58:07.121Z,42.40
2023-11-18T17:00:38.567Z,42.66
2023-11-18T17:03:11.289Z,42.45
2023-11-18T17:05:46.178Z,42.73
2023-11-18T17:08:16.060Z,42.36
2023-11-18T17:10:51.108Z,43.15
2023-11-18T17:13:20.982Z,42.76
2023-11-18T17:15:51.747Z,42.79
2023-11-18T17:18:22.926Z,42.89
2023-11-18T17:21:04.652Z,42.35
2023-11-18T17:23:34.892Z,42.91
2023-11-18T17:26:06.787Z,42.98
2023-11-18T17:28:36.391Z,42.57
2023-11-18T17:31:07.931Z,42.62
2023-11-18T17:33:39.608Z,42.69
2023-11-18T17:36:10.204Z,43.00
2023-11-18T17:38:39.853Z,42.92
2023-11-18T17:41:09.922Z,42.60
2023-11-18T17:43:39.550Z,42.38
2023-11-18T17:46:12.147Z,42.45
2023-11-18T17:48:43.927Z,42.52
2023-11-18T17:51:14.037Z,42.62
2023-11-18T17:53:43.559Z,42.99
2023-11-18T17:56:14.222Z,43.00
2023-11-18T17:58:43.878Z,42.90
2023-11-18T18:01:13.399Z,43.08
2023-11-18T18:03:45.491Z,42.84
2023-11-18T18:06:16.574Z,43.22
2023-11-18T18:08:46.107Z,43.24
2023-11-18T18:11:15.885Z,42.47
2023-11-18T18:13:45.775Z,42.64
2023-11-18T18:16:16.097Z,42.71
2023-11-18T18:18:47.848Z,42.75
2023-11-18T18:21:17.783Z,43.30
2023-11-18T18:23:47.513Z,42.98
2023-11-18T18:26:17.301Z,42.91
2023-11-18T18:28:49.934Z,42.82
2023-11-18T18:31:19.566Z,42.82
2023-11-18T18:33:59.819Z,43.42
2023-11-18T18:36:29.913Z,43.06
2023-11-18T18:38:59.610Z,43.03
2023-11-18T18:41:29.408Z,43.14
2023-11-18T18:43:59.101Z,42.88
2023-11-18T18:46:28.774Z,43.16
2023-11-18T18:49:00.409Z,42.86
2023-11-18T18:51:30.118Z,43.23
2023-11-18T18:53:59.595Z,42.96
2023-11-18T18:56:30.486Z,43.09
2023-11-18T18:59:00.259Z,42.98
2023-11-18T19:01:29.882Z,43.40
2023-11-18T19:04:01.257Z,43.48
2023-11-18T19:06:33.580Z,43.33
2023-11-18T19:09:03.387Z,43.43
2023-11-18T19:11:32.967Z,43.30
2023-11-18T19:14:02.829Z,43.72
2023-11-18T19:16:33.676Z,43.24
2023-11-18T19:19:05.756Z,43.00
2023-11-18T19:21:35.284Z,43.50
2023-11-18T19:24:04.922Z,43.16
2023-11-18T19:26:37.679Z,43.42
2023-11-18T19:29:07.401Z,43.81
2023-11-18T19:31:37.142Z,43.36
2023-11-18T19:34:08.986Z,43.32
2023-11-18T19:36:38.631Z,43.14
2023-11-18T19:39:09.439Z,43.66
2023-11-18T19:41:39.474Z,43.72
2023-11-18T19:44:09.055Z,43.72
2023-11-18T19:46:38.639Z,43.57
2023-11-18T19:49:11.315Z,43.64
2023-11-18T19:51:40.972Z,43.39
2023-11-18T19:54:11.275Z,43.88
2023-11-18T19:56:40.989Z,43.77
2023-11-18T19:59:10.468Z,43.74
2023-11-18T20:01:40.108Z,43.58
2023-11-18T20:04:13.355Z,43.66
2023-11-18T20:06:42.865Z,43.68
2023-11-18T20:09:13.555Z,43.70
2023-11-18T20:11:51.799Z,43.65
2023-11-18T20:14:21.706Z,43.68
2023-11-18T20:16:51.713Z,43.58
2023-11-18T20:19:23.735Z,43.52
2023-11-18T20:21:53.353Z,43.87
2023-11-18T20:24:22.942Z,43.80
2023-11-18T20:26:52.517Z,43.51
2023-11-18T20:29:22.094Z,43.73
2023-11-18T20:31:51.526Z,43.34
2023-11-18T20:34:23.540Z,43.92
2023-11-18T20:36:53.308Z,43.77
2023-11-18T20:39:23.546Z,43.95
2023-11-18T20:41:53.917Z,43.94
2023-11-18T20:44:24.744Z,44.07
2023-11-18T20:46:54.547Z,43.91
2023-11-18T20:49:26.619Z,44.28
2023-11-18T20:51:56.111Z,43.74
2023-11-18T20:54:25.656Z,43.91
2023-11-18T20:56:55.143Z,44.13
2023-11-18T20:59:25.060Z,43.81
2023-11-18T21:01:54.629Z,43.65
2023-11-18T21:04:26.301Z,44.15
2023-11-18T21:06:56.505Z,43.72
2023-11-18T21:09:26.925Z,44.13
2023-11-18T21:12:17.183Z,43.73
2023-11-18T21:14:50.962Z,43.96
2023-11-18T21:17:26.500Z,44.16
2023-11-18T21:19:58.024Z,43.83
2023-11-18T21:22:27.503Z,43.72
2023-11-18T21:24:58.081Z,43.86
2023-11-18T21:27:27.953Z,43.73
2023-11-18T21:29:57.440Z,43.71
2023-11-18T21:32:26.935Z,44.18
2023-11-18T21:34:58.455Z,43.79
2023-11-18T21:37:28.024Z,44.52
2023-11-18T21:39:59.037Z,43.99
2023-11-18T21:42:30.418Z,44.23
2023-11-18T21:45:00.162Z,44.26
2023-11-18T21:47:29.924Z,43.83
2023-11-18T21:50:02.030Z,43.80
2023-11-18T21:52:31.686Z,44.21
2023-11-18T21:55:01.286Z,43.99
2023-11-18T21:57:30.886Z,43.91
2023-11-18T22:00:00.370Z,44.18
2023-11-18T22:02:30.215Z,44.46
2023-11-18T22:05:01.389Z,44.23
2023-11-18T22:07:30.829Z,44.31
2023-11-18T22:10:00.617Z,44.27
2023-11-18T22:12:31.887Z,44.32
2023-11-18T22:15:01.729Z,44.29
2023-11-18T22:17:31.304Z,44.42
2023-11-18T22:20:02.848Z,44.33
2023-11-18T22:22:34.677Z,44.03
2023-11-18T22:25:04.389Z,44.14
2023-11-18T22:27:35.434Z,44.34
2023-11-18T22:30:07.393Z,44.21
2023-11-18T22:32:39.203Z,44.37
2023-11-18T22:35:12.090Z,44.70
2023-11-18T22:37:41.685Z,44.39
2023-11-18T22:40:16.981Z,44.38
2023-11-18T22:42:48.408Z,44.57
2023-11-18T22:45:21.328Z,44.71
2023-11-18T22:47:52.772Z,44.48
2023-11-18T22:50:25.079Z,44.62
2023-11-18T22:52:59.132Z,44.56
2023-11-18T22:55:28.959Z,44.74
2023-11-18T22:57:59.240Z,44.88
2023-11-18T23:00:51.687Z,44.50
2023-11-18T23:03:21.588Z,44.89
2023-11-18T23:05:54.461Z,44.66
2023-11-18T23:08:24.120Z,44.84
2023-11-18T23:10:54.044Z,44.84
2023-11-18T23:13:24.566Z,44.51
2023-11-18T23:15:57.374Z,45.00
2023-11-18T23:18:27.505Z,44.47
2023-11-18T23:20:59.223Z,44.54
2023-11-18T23:23:29.049Z,44.52
2023-11-18T23:25:58.794Z,44.34
2023-11-18T23:28:28.351Z,44.81
2023-11-18T23:30:58.693Z,44.50
2023-11-18T23:33:29.189Z,44.95
2023-11-18T23:35:59.717Z,44.44
2023-11-18T23:38:29.400Z,44.79
2023-11-18T23:40:59.259Z,44.62
2023-11-18T23:43:30.171Z,44.45
2023-11-18T23:46:00.114Z,44.99
2023-11-18T23:48:30.689Z,44.56
2023-11-18T23:51:02.775Z,44.76
2023-11-18T23:53:32.677Z,44.34
2023-11-18T23:56:02.832Z,44.39
2023-11-18T23:58:34.020Z,44.66
